ASN logo
ASN Wikibase Occurrence # 224258
Last updated: 13 December 2019
This information is added by users of ASN. Neither ASN nor the Flight Safety Foundation are responsible for the completeness or correctness of this information. If you feel this information is incomplete or incorrect, you can submit corrected information.

Date:23-APR-2019
Time:16:45 LT
Type:Silhouette image of generic E170 model; specific model in this crash may look slightly different
Embraer ERJ-175STD (ERJ-170-200)
Owner/operator:Fuji Dream Airlines
Registration: JA11FJ
C/n / msn: 17000526
Fatalities:Fatalities: 0 / Occupants: 64
Other fatalities:0
Aircraft damage: Minor
Location:Yamagata Airport (GAJ/RJSC) -   Japan
Phase: Take off
Nature:Domestic Scheduled Passenger
Departure airport:Yamagata-Junmachi Airport (GAJ/RJSC)
Destination airport:Nagoya-Komaki International Airport (NKM/RJNA)
Narrative:
Fuji Dream Airlines' flight FDA/JH386 from Yamagata to Nagoya/Komaki, operated by a ERJ-175STD, suffered runway excursion while take off from runway 19 of Yamagata. The aircraft veered off to the left side of the runway just after the takeoff roll, hit and damaged the right side of the PAPI located 387 meters from the runway threshold, and stopped about 10 meters left of the runway and 700 meters from the runway threshold. The nose gear suffered a scratch, however, there were no more damage on the aircraft. No injuries were reported among 4 crew and 60 passengers. The sole runway was closed until the next morning, causing 8 other commercial flights to be cancelled, one more to be diverted to Sendai Airport (SDJ/RJSS). JTSB launched an investigation as a serious incident.

The METAR data at Yamagata (accident time 16:45LT/07:45 UTC):
RJSC 230700Z 07013KT CAVOK 21/07 Q1016
RJSC 230800Z 07013KT CAVOK 20/07 Q1016

Sources:

https://headlines.yahoo.co.jp/hl?a=20190423-00000033-mai-soci.view-000
https://www3.nhk.or.jp/news/html/20190423/k10011893671000.html?utm_int=news-social_contents_list-items_007
https://headlines.yahoo.co.jp/hl?a=20190423-00000004-rescuenow-soci
https://headlines.yahoo.co.jp/hl?a=20190423-00000174-kyodonews-soci
http://www.news24.jp/articles/2019/04/23/07430714.html
https://www.fujidream.co.jp/important/
https://headlines.yahoo.co.jp/hl?a=20190424-00000061-asahi-soci
https://headlines.yahoo.co.jp/hl?a=20190424-00000062-mai-soci
https://headlines.yahoo.co.jp/hl?a=20190425-00000013-khks-soci
https://www.fujidream.co.jp/company/press/doc/190424.pdf


Revision history:

Date/timeContributorUpdates
23-Apr-2019 11:01 isamuel Added
23-Apr-2019 11:05 harro Updated [Embed code]
23-Apr-2019 19:13 Aerossurance Updated [Embed code, Narrative]
24-Apr-2019 13:52 isamuel Updated [Source, Narrative]
25-Apr-2019 12:53 isamuel Updated [Source, Damage, Narrative]

Corrections or additions? ... Edit this accident description